createdAt,value
2019-03-30T00:00:21.422Z,60.90
2019-03-30T00:01:08.265Z,60.20
2019-03-30T00:01:47.245Z,59.60
2019-03-30T00:02:27.004Z,60.00
2019-03-30T00:03:07.001Z,61.00
2019-03-30T00:03:46.020Z,62.50
2019-03-30T00:04:24.989Z,63.80
2019-03-30T00:05:03.954Z,64.20
2019-03-30T00:05:43.050Z,65.20
2019-03-30T00:06:22.308Z,65.60
2019-03-30T00:07:01.734Z,65.70
2019-03-30T00:07:41.414Z,66.60
2019-03-30T00:08:21.053Z,67.00
2019-03-30T00:09:00.254Z,67.40
2019-03-30T00:09:39.288Z,66.00
2019-03-30T00:10:18.466Z,65.00
2019-03-30T00:10:57.944Z,63.80
2019-03-30T00:11:37.058Z,63.10
2019-03-30T00:12:16.109Z,62.00
2019-03-30T00:12:55.210Z,61.30
2019-03-30T00:13:34.169Z,60.50
2019-03-30T00:14:13.051Z,60.00
2019-03-30T00:14:52.407Z,59.50
2019-03-30T00:15:31.350Z,60.00
2019-03-30T00:16:10.338Z,61.00
2019-03-30T00:16:49.370Z,62.00
2019-03-30T00:17:28.876Z,63.20
2019-03-30T00:18:07.816Z,63.80
2019-03-30T00:18:47.347Z,64.80
2019-03-30T00:19:34.750Z,65.30
2019-03-30T00:20:07.146Z,66.10
2019-03-30T00:20:46.150Z,66.40
2019-03-30T00:21:25.132Z,67.00
2019-03-30T00:22:04.041Z,67.20
2019-03-30T00:22:43.049Z,66.00
2019-03-30T00:23:22.006Z,65.20
2019-03-30T00:24:00.974Z,63.90
2019-03-30T00:24:39.941Z,62.90
2019-03-30T00:25:18.933Z,62.10
2019-03-30T00:25:57.959Z,61.40
2019-03-30T00:26:36.923Z,60.70
2019-03-30T00:27:15.912Z,60.10
2019-03-30T00:27:54.913Z,59.70
2019-03-30T00:28:33.806Z,59.10
2019-03-30T00:29:12.970Z,58.90
2019-03-30T00:29:52.150Z,59.50
2019-03-30T00:30:31.426Z,60.70
2019-03-30T00:31:10.721Z,62.10
2019-03-30T00:31:49.692Z,62.90
2019-03-30T00:32:28.668Z,63.60
2019-03-30T00:33:07.690Z,64.20
2019-03-30T00:33:47.303Z,65.00
2019-03-30T00:34:27.190Z,65.10
2019-03-30T00:35:06.189Z,66.20
2019-03-30T00:35:45.595Z,67.00
2019-03-30T00:36:26.288Z,66.60
2019-03-30T00:37:05.610Z,65.40
2019-03-30T00:37:45.078Z,64.50
2019-03-30T00:38:24.775Z,63.40
2019-03-30T00:39:04.293Z,62.80
2019-03-30T00:39:43.917Z,61.70
2019-03-30T00:40:23.408Z,61.20
2019-03-30T00:41:02.638Z,60.50
2019-03-30T00:41:41.642Z,59.90
2019-03-30T00:42:20.589Z,59.30
2019-03-30T00:43:00.223Z,59.00
2019-03-30T00:43:39.244Z,58.60
2019-03-30T00:44:18.719Z,58.10
2019-03-30T00:44:58.332Z,58.50
2019-03-30T00:45:37.300Z,59.40
2019-03-30T00:46:16.515Z,60.70
2019-03-30T00:46:56.036Z,61.90
2019-03-30T00:47:35.451Z,62.50
2019-03-30T00:48:15.282Z,63.50
2019-03-30T00:48:54.518Z,64.20
2019-03-30T00:49:34.035Z,64.80
2019-03-30T00:50:13.563Z,65.50
2019-03-30T00:50:52.602Z,66.00
2019-03-30T00:51:31.625Z,66.90
2019-03-30T00:52:11.415Z,65.30
2019-03-30T00:52:50.356Z,64.20
2019-03-30T00:53:29.682Z,63.20
2019-03-30T00:54:09.084Z,62.40
2019-03-30T00:54:48.076Z,61.70
2019-03-30T00:55:27.104Z,60.90
2019-03-30T00:56:06.353Z,60.30
2019-03-30T00:56:46.518Z,59.70
2019-03-30T00:57:25.477Z,59.30
2019-03-30T00:58:04.504Z,58.90
2019-03-30T00:58:43.835Z,58.50
2019-03-30T00:59:23.487Z,58.10
2019-03-30T01:00:02.795Z,58.50
2019-03-30T01:00:41.782Z,59.60
2019-03-30T01:01:20.741Z,61.60
2019-03-30T01:01:59.708Z,62.30
2019-03-30T01:02:38.700Z,63.40
2019-03-30T01:03:17.645Z,64.30
2019-03-30T01:03:57.225Z,65.00
2019-03-30T01:04:36.493Z,65.40
2019-03-30T01:05:16.093Z,66.30
2019-03-30T01:05:58.145Z,67.00
2019-03-30T01:06:35.658Z,67.70
2019-03-30T01:07:15.098Z,65.70
2019-03-30T01:07:54.734Z,64.80
2019-03-30T01:08:33.668Z,63.60
2019-03-30T01:09:12.645Z,62.90
2019-03-30T01:09:51.650Z,62.20
2019-03-30T01:10:32.502Z,61.60
2019-03-30T01:11:11.455Z,61.00
2019-03-30T01:11:50.664Z,60.40
2019-03-30T01:12:29.692Z,60.60
2019-03-30T01:13:08.726Z,60.70
2019-03-30T01:13:47.737Z,60.60
2019-03-30T01:14:27.355Z,60.50
2019-03-30T01:15:07.353Z,60.20
2019-03-30T01:15:46.918Z,59.80
2019-03-30T01:16:26.355Z,59.50
2019-03-30T01:17:05.670Z,58.90
2019-03-30T01:17:44.849Z,59.30
2019-03-30T01:18:24.040Z,60.40
2019-03-30T01:19:03.682Z,61.70
2019-03-30T01:19:43.319Z,63.00
2019-03-30T01:20:22.999Z,63.50
2019-03-30T01:21:01.995Z,64.40
2019-03-30T01:21:41.026Z,65.00
2019-03-30T01:22:20.514Z,65.60
2019-03-30T01:22:59.506Z,66.30
2019-03-30T01:23:38.503Z,66.90
2019-03-30T01:24:17.487Z,67.30
2019-03-30T01:24:56.473Z,66.00
2019-03-30T01:25:35.665Z,65.10
2019-03-30T01:26:14.670Z,64.20
2019-03-30T01:26:54.374Z,63.40
2019-03-30T01:27:33.931Z,62.30
2019-03-30T01:28:13.280Z,61.70
2019-03-30T01:28:52.292Z,61.00
2019-03-30T01:29:31.299Z,60.50
2019-03-30T01:30:22.459Z,59.80
2019-03-30T01:30:50.732Z,59.70
2019-03-30T01:31:29.740Z,61.20
2019-03-30T01:32:08.903Z,62.00
2019-03-30T01:32:47.923Z,63.30
2019-03-30T01:33:26.902Z,64.10
2019-03-30T01:34:06.256Z,65.00
2019-03-30T01:34:45.850Z,65.70
2019-03-30T01:35:25.557Z,66.50
2019-03-30T01:36:05.771Z,67.00
2019-03-30T01:36:45.664Z,67.40
2019-03-30T01:37:25.403Z,67.80
2019-03-30T01:38:05.120Z,66.90
2019-03-30T01:38:44.098Z,65.90
2019-03-30T01:39:23.198Z,65.00
2019-03-30T01:40:02.218Z,64.00
2019-03-30T01:40:41.891Z,63.10
2019-03-30T01:41:21.404Z,62.20
2019-03-30T01:42:00.436Z,61.50
2019-03-30T01:42:39.525Z,60.80
2019-03-30T01:43:19.395Z,60.10
2019-03-30T01:43:58.416Z,60.00
2019-03-30T01:44:37.630Z,61.30
2019-03-30T01:45:17.293Z,62.90
2019-03-30T01:45:56.287Z,65.10
2019-03-30T01:46:35.706Z,65.00
2019-03-30T01:47:14.745Z,65.50
2019-03-30T01:47:54.590Z,66.00
2019-03-30T01:48:33.611Z,66.50
2019-03-30T01:49:12.598Z,65.50
2019-03-30T01:49:52.485Z,64.30
2019-03-30T01:50:32.088Z,63.20
2019-03-30T01:51:11.081Z,62.20
2019-03-30T01:51:50.112Z,61.60
2019-03-30T01:52:29.562Z,61.00
2019-03-30T01:53:08.782Z,60.40
2019-03-30T01:53:48.332Z,60.00
2019-03-30T01:54:27.730Z,59.80
2019-03-30T01:55:07.370Z,59.40
2019-03-30T01:55:47.262Z,59.40
2019-03-30T01:56:26.675Z,59.70
2019-03-30T01:57:06.412Z,59.70
2019-03-30T01:57:45.896Z,59.80
2019-03-30T01:58:24.883Z,59.70
2019-03-30T01:59:03.882Z,59.70
2019-03-30T01:59:43.660Z,59.70
2019-03-30T02:00:23.096Z,59.80
2019-03-30T02:01:02.077Z,59.80
2019-03-30T02:01:41.586Z,59.70
2019-03-30T02:02:20.842Z,59.80
2019-03-30T02:03:00.554Z,59.70
2019-03-30T02:03:39.946Z,59.60
2019-03-30T02:04:19.542Z,59.50
2019-03-30T02:04:59.570Z,59.40
2019-03-30T02:05:40.841Z,59.40
2019-03-30T02:06:20.312Z,59.40
2019-03-30T02:07:00.161Z,59.50
2019-03-30T02:07:39.356Z,59.40
2019-03-30T02:08:18.965Z,59.40
2019-03-30T02:08:57.977Z,59.30
2019-03-30T02:09:37.098Z,59.30
2019-03-30T02:10:16.041Z,59.30
2019-03-30T02:10:55.360Z,59.30
2019-03-30T02:11:34.365Z,59.40
2019-03-30T02:12:13.783Z,59.50
2019-03-30T02:12:53.161Z,59.50
2019-03-30T02:13:32.565Z,59.60
2019-03-30T02:14:11.617Z,59.60
2019-03-30T02:14:51.642Z,59.70
2019-03-30T02:15:31.951Z,60.60
2019-03-30T02:16:12.470Z,61.80
2019-03-30T02:16:52.292Z,62.10
2019-03-30T02:17:31.618Z,61.80
2019-03-30T02:18:10.648Z,61.70
2019-03-30T02:18:49.607Z,61.90
2019-03-30T02:19:28.630Z,63.00
2019-03-30T02:20:07.897Z,63.00
2019-03-30T02:20:47.724Z,62.90
2019-03-30T02:21:26.739Z,63.20
2019-03-30T02:22:05.765Z,63.80
2019-03-30T02:22:44.753Z,64.00
2019-03-30T02:23:23.842Z,64.40
2019-03-30T02:24:03.161Z,64.70
2019-03-30T02:24:42.724Z,65.20
2019-03-30T02:25:22.458Z,65.30
2019-03-30T02:26:02.237Z,65.20
2019-03-30T02:26:41.878Z,65.40
2019-03-30T02:27:20.838Z,65.20
2019-03-30T02:27:59.924Z,65.40
2019-03-30T02:28:38.996Z,65.20
2019-03-30T02:29:18.028Z,65.50
2019-03-30T02:29:58.217Z,66.00
2019-03-30T02:30:37.968Z,66.20
2019-03-30T02:31:18.330Z,66.30
2019-03-30T02:31:57.934Z,66.30
2019-03-30T02:32:36.948Z,66.50
2019-03-30T02:33:15.942Z,66.50
2019-03-30T02:33:54.928Z,66.60
2019-03-30T02:34:33.901Z,66.60
2019-03-30T02:35:13.325Z,66.70
2019-03-30T02:35:52.305Z,67.60
2019-03-30T02:36:31.415Z,67.60
2019-03-30T02:37:10.470Z,67.60
2019-03-30T02:37:50.102Z,67.70
2019-03-30T02:38:29.774Z,67.80
2019-03-30T02:39:09.306Z,68.00
2019-03-30T02:39:48.934Z,67.80
2019-03-30T02:40:27.939Z,68.50
2019-03-30T02:41:07.069Z,68.90
2019-03-30T02:41:46.132Z,68.80
2019-03-30T02:42:25.254Z,68.70
2019-03-30T02:43:04.413Z,68.70
2019-03-30T02:43:44.020Z,68.70
2019-03-30T02:44:23.560Z,69.20
2019-03-30T02:45:03.068Z,68.80
2019-03-30T02:45:42.772Z,69.30
2019-03-30T02:46:22.400Z,69.20
2019-03-30T02:47:01.367Z,69.50
2019-03-30T02:47:40.746Z,69.10
2019-03-30T02:48:20.378Z,69.50
2019-03-30T02:48:59.341Z,69.60
2019-03-30T02:49:38.485Z,69.80
2019-03-30T02:50:17.453Z,69.60
2019-03-30T02:50:56.396Z,70.00
2019-03-30T02:51:53.852Z,69.50
2019-03-30T02:52:33.310Z,69.20
2019-03-30T02:53:12.292Z,70.20
2019-03-30T02:53:51.761Z,69.50
2019-03-30T02:54:30.719Z,69.70
2019-03-30T02:55:12.591Z,70.10
2019-03-30T02:55:50.574Z,70.00
2019-03-30T02:56:30.491Z,70.70
2019-03-30T02:57:09.548Z,71.00
2019-03-30T02:57:49.049Z,70.20
2019-03-30T02:58:30.029Z,70.80
2019-03-30T02:59:09.015Z,70.40
2019-03-30T02:59:48.560Z,70.40
2019-03-30T03:00:27.714Z,70.20
2019-03-30T03:01:06.810Z,70.40
2019-03-30T03:01:45.825Z,71.50
2019-03-30T03:02:28.400Z,70.30
2019-03-30T03:03:07.461Z,70.70
2019-03-30T03:03:46.692Z,71.10
2019-03-30T03:04:29.207Z,71.10
2019-03-30T03:05:08.182Z,71.30
2019-03-30T03:05:47.454Z,71.20
2019-03-30T03:06:26.738Z,71.60
2019-03-30T03:07:06.258Z,72.40
2019-03-30T03:07:45.903Z,72.80
2019-03-30T03:08:25.601Z,72.20
2019-03-30T03:09:06.043Z,72.00
2019-03-30T03:09:45.075Z,72.90
2019-03-30T03:10:24.622Z,72.10
2019-03-30T03:11:03.620Z,72.50
2019-03-30T03:11:42.850Z,72.10
2019-03-30T03:12:21.909Z,72.30
2019-03-30T03:13:02.565Z,72.20
2019-03-30T03:13:41.825Z,72.80
2019-03-30T03:14:21.105Z,72.80
2019-03-30T03:15:00.761Z,72.80
2019-03-30T03:15:39.730Z,73.20
2019-03-30T03:16:18.746Z,73.90
2019-03-30T03:16:57.992Z,73.80
2019-03-30T03:17:37.097Z,73.60
2019-03-30T03:18:17.063Z,73.20
2019-03-30T03:18:59.312Z,73.40
2019-03-30T03:19:38.322Z,73.50
2019-03-30T03:20:18.570Z,73.70
2019-03-30T03:21:07.545Z,74.10
2019-03-30T03:21:39.214Z,74.00
2019-03-30T03:22:18.294Z,73.80
2019-03-30T03:22:57.434Z,73.80
2019-03-30T03:23:36.464Z,73.90
2019-03-30T03:24:16.075Z,73.10
2019-03-30T03:24:55.615Z,73.80
2019-03-30T03:25:35.340Z,73.80
2019-03-30T03:26:15.071Z,73.80
2019-03-30T03:26:54.151Z,73.90
2019-03-30T03:27:33.900Z,74.40
2019-03-30T03:28:13.454Z,73.10
2019-03-30T03:28:52.612Z,74.00
2019-03-30T03:29:31.684Z,74.50
2019-03-30T03:30:11.652Z,74.30
2019-03-30T03:30:50.729Z,74.50
2019-03-30T03:31:30.503Z,75.10
2019-03-30T03:32:09.510Z,74.90
2019-03-30T03:32:48.692Z,74.90
2019-03-30T03:33:28.103Z,75.20
2019-03-30T03:34:07.441Z,75.00
2019-03-30T03:34:46.477Z,74.90
2019-03-30T03:35:26.099Z,75.10
2019-03-30T03:36:05.756Z,74.60
2019-03-30T03:36:45.297Z,74.50
2019-03-30T03:37:43.422Z,74.70
2019-03-30T03:38:06.711Z,73.40
2019-03-30T03:38:45.717Z,73.90
2019-03-30T03:39:25.528Z,73.90
2019-03-30T03:40:04.627Z,73.50
2019-03-30T03:40:44.131Z,73.10
2019-03-30T03:41:23.267Z,73.30
2019-03-30T03:42:02.263Z,73.80
2019-03-30T03:42:41.378Z,73.20
2019-03-30T03:43:20.343Z,74.00
2019-03-30T03:43:59.411Z,74.30
2019-03-30T03:44:38.798Z,74.00
2019-03-30T03:45:17.970Z,74.30
2019-03-30T03:45:57.593Z,74.50
2019-03-30T03:46:36.588Z,74.50
2019-03-30T03:47:15.782Z,74.20
2019-03-30T03:47:55.469Z,74.50
2019-03-30T03:48:34.969Z,73.60
2019-03-30T03:49:13.945Z,73.10
2019-03-30T03:49:52.946Z,74.50
2019-03-30T03:50:47.381Z,74.40
2019-03-30T03:51:26.991Z,75.50
2019-03-30T03:52:06.769Z,76.00
2019-03-30T03:52:46.362Z,75.60
2019-03-30T03:53:26.007Z,74.50
2019-03-30T03:54:05.293Z,74.80
2019-03-30T03:54:44.325Z,74.60
2019-03-30T03:55:23.308Z,75.30
2019-03-30T03:56:02.475Z,75.00
2019-03-30T03:56:41.677Z,75.80
2019-03-30T03:57:20.665Z,75.90
2019-03-30T03:57:59.939Z,75.10
2019-03-30T03:58:39.456Z,74.40
2019-03-30T03:59:18.755Z,75.90
2019-03-30T03:59:58.566Z,76.00
2019-03-30T04:00:38.077Z,74.50
2019-03-30T04:01:17.327Z,75.30
2019-03-30T04:02:01.137Z,76.20
2019-03-30T04:02:40.923Z,74.20
2019-03-30T04:03:21.053Z,76.70
2019-03-30T04:04:01.193Z,77.40
2019-03-30T04:04:40.842Z,74.30
2019-03-30T04:05:19.818Z,76.10
2019-03-30T04:06:01.273Z,77.20
2019-03-30T04:06:40.853Z,74.70
2019-03-30T04:07:20.521Z,76.40
2019-03-30T04:07:59.623Z,77.60
2019-03-30T04:08:39.279Z,76.30
2019-03-30T04:09:19.896Z,75.70
2019-03-30T04:09:59.668Z,75.80
2019-03-30T04:10:39.482Z,77.20
2019-03-30T04:11:19.250Z,75.60
2019-03-30T04:11:58.766Z,74.70
2019-03-30T04:12:39.336Z,78.00
2019-03-30T04:13:19.214Z,75.30
2019-03-30T04:13:58.591Z,76.10
2019-03-30T04:14:37.590Z,76.90
2019-03-30T04:15:27.343Z,75.20
2019-03-30T04:16:06.522Z,77.50
2019-03-30T04:16:45.693Z,75.00
2019-03-30T04:17:24.737Z,75.50
2019-03-30T04:18:03.765Z,74.70
2019-03-30T04:18:47.392Z,77.60
2019-03-30T04:19:23.788Z,76.30
2019-03-30T04:20:02.811Z,76.50
2019-03-30T04:20:41.809Z,74.80
2019-03-30T04:21:20.841Z,76.70
2019-03-30T04:21:59.863Z,77.70
2019-03-30T04:22:38.853Z,75.60
2019-03-30T04:23:17.884Z,75.30
2019-03-30T04:23:59.153Z,75.40
2019-03-30T04:24:38.886Z,76.60
2019-03-30T04:25:18.328Z,76.80
2019-03-30T04:25:57.454Z,76.10
2019-03-30T04:26:36.476Z,77.20
2019-03-30T04:27:15.629Z,75.80
2019-03-30T04:27:54.691Z,77.50
2019-03-30T04:28:33.710Z,77.00
2019-03-30T04:29:12.893Z,79.20
2019-03-30T04:29:51.922Z,79.20
2019-03-30T04:30:30.978Z,77.90
2019-03-30T04:31:10.632Z,76.50
2019-03-30T04:31:50.336Z,78.10
2019-03-30T04:32:29.521Z,77.20
2019-03-30T04:33:09.285Z,78.20
2019-03-30T04:33:52.647Z,77.50
2019-03-30T04:34:32.246Z,78.90
2019-03-30T04:35:11.629Z,76.80
2019-03-30T04:35:51.153Z,78.00
2019-03-30T04:36:30.158Z,78.00
2019-03-30T04:37:09.674Z,77.90
2019-03-30T04:37:48.855Z,77.20
2019-03-30T04:38:28.570Z,78.10
2019-03-30T04:39:07.515Z,77.90
2019-03-30T04:39:46.541Z,76.90
2019-03-30T04:40:25.682Z,77.00
2019-03-30T04:41:04.806Z,76.50
2019-03-30T04:41:43.881Z,77.10
2019-03-30T04:42:23.084Z,77.30
2019-03-30T04:43:02.058Z,78.40
2019-03-30T04:43:41.800Z,76.50
2019-03-30T04:44:20.817Z,77.60
2019-03-30T04:45:00.399Z,76.00
2019-03-30T04:45:39.930Z,78.80
2019-03-30T04:46:19.518Z,80.90
2019-03-30T04:46:58.908Z,81.80
2019-03-30T04:47:37.983Z,80.80
2019-03-30T04:48:17.317Z,81.50
2019-03-30T04:48:56.294Z,81.50
2019-03-30T04:49:35.437Z,80.70
2019-03-30T04:50:14.399Z,80.80
2019-03-30T04:50:53.384Z,80.00
2019-03-30T04:51:32.979Z,79.90
2019-03-30T04:52:11.952Z,80.50
2019-03-30T04:57:03.092Z,78.40
2019-03-30T04:57:49.955Z,79.60
2019-03-30T04:58:31.902Z,79.20
2019-03-30T04:59:10.948Z,78.30
2019-03-30T04:59:49.929Z,79.40
2019-03-30T05:00:28.957Z,78.90
2019-03-30T05:01:07.893Z,77.80
2019-03-30T05:01:46.829Z,78.20
2019-03-30T05:02:25.813Z,79.20
2019-03-30T05:03:05.415Z,78.70
2019-03-30T05:03:44.636Z,78.50
2019-03-30T05:04:24.177Z,79.10
2019-03-30T05:05:03.878Z,78.90
2019-03-30T05:05:43.374Z,78.50
2019-03-30T05:06:22.819Z,78.20
2019-03-30T05:07:01.806Z,77.40
2019-03-30T05:07:40.768Z,79.00
2019-03-30T05:08:20.452Z,78.50
2019-03-30T05:08:59.464Z,78.30
2019-03-30T05:09:38.510Z,78.20
2019-03-30T05:10:17.445Z,78.60
2019-03-30T05:10:56.426Z,78.50
2019-03-30T05:11:35.789Z,77.50
2019-03-30T05:12:15.000Z,77.80
2019-03-30T05:12:54.455Z,78.80
2019-03-30T05:13:34.415Z,78.80
2019-03-30T05:14:14.101Z,78.20
2019-03-30T05:14:53.448Z,78.00
2019-03-30T05:15:32.537Z,78.50
2019-03-30T05:16:12.080Z,78.40
2019-03-30T05:16:51.812Z,78.10
2019-03-30T05:17:46.435Z,79.20
2019-03-30T05:18:11.689Z,78.40
2019-03-30T05:18:50.684Z,77.90
2019-03-30T05:19:30.328Z,78.50
2019-03-30T05:20:09.406Z,77.60
2019-03-30T05:20:48.403Z,79.40
2019-03-30T05:21:27.477Z,79.60
2019-03-30T05:22:12.791Z,79.50
2019-03-30T05:22:47.296Z,79.20
2019-03-30T05:23:26.666Z,80.10
2019-03-30T05:24:05.952Z,79.00
2019-03-30T05:24:44.917Z,79.20
2019-03-30T05:25:23.920Z,78.90
2019-03-30T05:26:02.877Z,79.00
2019-03-30T05:26:41.859Z,78.80
2019-03-30T05:27:20.824Z,78.40
2019-03-30T05:28:00.177Z,77.20
2019-03-30T05:28:39.214Z,77.50
2019-03-30T05:29:18.229Z,78.70
2019-03-30T05:29:57.231Z,78.60
2019-03-30T05:30:37.567Z,79.20
2019-03-30T05:31:19.385Z,79.90
2019-03-30T05:31:58.365Z,79.10
2019-03-30T05:32:37.441Z,78.40
2019-03-30T05:33:16.956Z,79.60
2019-03-30T05:33:55.954Z,80.30
2019-03-30T05:34:35.016Z,79.80
2019-03-30T05:35:14.627Z,79.40
2019-03-30T05:35:53.615Z,79.30
2019-03-30T05:36:32.576Z,78.30
2019-03-30T05:37:11.607Z,78.50
2019-03-30T05:37:50.648Z,77.80
2019-03-30T05:38:29.924Z,76.70
2019-03-30T05:39:09.025Z,77.40
2019-03-30T05:39:48.257Z,79.00
2019-03-30T05:40:27.696Z,77.30
2019-03-30T05:41:06.653Z,78.80
2019-03-30T05:41:46.248Z,79.40
2019-03-30T05:42:26.067Z,78.80
2019-03-30T05:43:05.038Z,78.30
2019-03-30T05:43:44.720Z,78.80
2019-03-30T05:44:24.665Z,79.50
2019-03-30T05:45:03.706Z,79.80
2019-03-30T05:45:42.638Z,78.50
2019-03-30T05:46:21.566Z,77.90
2019-03-30T05:47:00.600Z,79.50
2019-03-30T05:47:39.925Z,79.20
2019-03-30T05:48:19.245Z,77.90
2019-03-30T05:48:58.294Z,76.70
2019-03-30T05:49:38.037Z,78.90
2019-03-30T05:50:17.505Z,81.40
2019-03-30T05:50:57.046Z,77.90
2019-03-30T05:51:36.061Z,78.10
2019-03-30T05:52:25.946Z,76.60
2019-03-30T05:52:56.677Z,77.50
2019-03-30T05:53:35.784Z,77.80
2019-03-30T05:54:14.680Z,77.60
2019-03-30T05:54:53.767Z,81.30
2019-03-30T05:55:32.786Z,83.30
2019-03-30T05:56:12.131Z,80.90
2019-03-30T05:56:51.136Z,79.70
2019-03-30T05:57:30.136Z,82.00
2019-03-30T05:58:09.497Z,83.50
2019-03-30T05:58:49.186Z,84.40
2019-03-30T05:59:28.440Z,82.70
2019-03-30T06:00:08.185Z,82.20
2019-03-30T06:00:47.680Z,81.20
2019-03-30T06:01:26.665Z,83.50
2019-03-30T06:02:05.653Z,84.50
2019-03-30T06:02:44.732Z,89.90
2019-03-30T06:03:24.238Z,83.70
2019-03-30T06:04:03.221Z,84.00
2019-03-30T06:04:42.157Z,88.50
2019-03-30T06:05:21.123Z,87.50
2019-03-30T06:06:00.514Z,88.40
2019-03-30T06:06:39.599Z,88.80
2019-03-30T06:07:18.862Z,87.30
2019-03-30T06:07:58.200Z,89.00
2019-03-30T06:08:37.789Z,89.20
2019-03-30T06:09:17.300Z,90.20
2019-03-30T06:09:56.269Z,90.00
2019-03-30T06:10:38.624Z,90.10
2019-03-30T06:11:16.446Z,90.00
2019-03-30T06:11:55.421Z,90.50
2019-03-30T06:12:34.460Z,90.20
2019-03-30T06:13:14.410Z,90.80
2019-03-30T06:13:53.631Z,90.40
2019-03-30T06:14:32.829Z,90.60
2019-03-30T06:15:11.958Z,88.30
2019-03-30T06:15:50.960Z,90.30
2019-03-30T06:16:30.077Z,90.60
2019-03-30T06:17:09.604Z,90.50
2019-03-30T06:17:49.091Z,90.50
2019-03-30T06:18:28.588Z,90.00
2019-03-30T06:19:07.631Z,90.30
2019-03-30T06:19:46.763Z,89.60
2019-03-30T06:20:25.758Z,90.20
2019-03-30T06:21:04.743Z,90.50
2019-03-30T06:21:44.152Z,90.40
2019-03-30T06:22:23.210Z,90.40
2019-03-30T06:23:02.208Z,88.70
2019-03-30T06:23:41.185Z,90.40
2019-03-30T06:24:20.520Z,90.40
2019-03-30T06:24:59.517Z,88.50
2019-03-30T06:25:38.874Z,87.40
2019-03-30T06:26:18.525Z,89.90
2019-03-30T06:27:00.205Z,90.30
2019-03-30T06:27:39.208Z,89.10
2019-03-30T06:28:18.158Z,87.80
2019-03-30T06:28:57.155Z,89.60
2019-03-30T06:29:36.203Z,87.80
2019-03-30T06:30:33.648Z,88.40
2019-03-30T06:31:12.697Z,89.30
2019-03-30T06:31:51.685Z,89.60
2019-03-30T06:32:31.111Z,89.80
2019-03-30T06:33:10.147Z,88.40
2019-03-30T06:33:49.090Z,89.00
2019-03-30T06:34:28.106Z,89.40
2019-03-30T06:35:07.661Z,89.10
2019-03-30T06:35:47.201Z,89.30
2019-03-30T06:36:26.934Z,89.30
2019-03-30T06:37:23.893Z,88.90
2019-03-30T06:38:03.730Z,88.90
2019-03-30T06:38:42.823Z,89.10
2019-03-30T06:39:22.144Z,88.70
2019-03-30T06:40:01.549Z,88.50
2019-03-30T06:40:40.578Z,87.90
2019-03-30T06:41:20.215Z,88.00
2019-03-30T06:41:59.939Z,88.40
2019-03-30T06:42:39.041Z,88.20
2019-03-30T06:43:18.025Z,88.00
2019-03-30T06:43:57.626Z,87.60
2019-03-30T06:44:37.327Z,87.10
2019-03-30T06:45:16.344Z,87.30
2019-03-30T06:45:55.750Z,87.50
2019-03-30T06:46:34.755Z,87.10
2019-03-30T06:47:13.696Z,87.50
2019-03-30T06:47:52.647Z,87.00
2019-03-30T06:48:32.340Z,87.20
2019-03-30T06:49:12.067Z,86.60
2019-03-30T06:49:51.206Z,87.00
2019-03-30T06:50:30.190Z,86.20
2019-03-30T06:51:09.933Z,85.10
2019-03-30T06:51:49.705Z,86.40
2019-03-30T06:52:28.711Z,86.40
2019-03-30T06:53:08.315Z,86.20
2019-03-30T06:53:47.338Z,86.10
2019-03-30T06:54:26.456Z,85.70
2019-03-30T06:55:05.460Z,84.70
2019-03-30T06:55:44.405Z,85.70
2019-03-30T06:56:24.325Z,85.80
2019-03-30T06:57:05.276Z,85.80
2019-03-30T06:57:44.675Z,85.50
2019-03-30T06:58:24.017Z,85.30
2019-03-30T06:59:03.454Z,85.40
2019-03-30T06:59:42.951Z,85.10
2019-03-30T07:00:23.232Z,84.80
2019-03-30T07:01:02.193Z,85.10
2019-03-30T07:01:41.753Z,85.10
2019-03-30T07:02:21.183Z,84.20
2019-03-30T07:03:00.953Z,83.70
2019-03-30T07:03:40.454Z,84.60
2019-03-30T07:04:21.012Z,84.00
2019-03-30T07:05:01.034Z,84.30
2019-03-30T07:05:48.840Z,84.60
2019-03-30T07:06:28.362Z,84.30
2019-03-30T07:07:07.918Z,84.80
2019-03-30T07:07:50.568Z,84.90
2019-03-30T07:08:30.940Z,84.70
2019-03-30T07:09:10.823Z,84.70
2019-03-30T07:09:49.906Z,85.10
2019-03-30T07:10:28.994Z,84.90
2019-03-30T07:11:20.445Z,84.90
2019-03-30T07:11:49.557Z,85.40
2019-03-30T07:12:29.368Z,85.70
2019-03-30T07:13:11.294Z,85.50
2019-03-30T07:13:50.931Z,85.60
2019-03-30T07:14:31.118Z,85.90
2019-03-30T07:15:10.693Z,86.20
2019-03-30T07:15:53.883Z,87.10
2019-03-30T07:16:33.285Z,86.80
2019-03-30T07:17:14.075Z,87.20
2019-03-30T07:17:53.608Z,87.00
2019-03-30T07:18:32.626Z,87.60
2019-03-30T07:19:11.628Z,87.70
2019-03-30T07:19:51.227Z,87.50
2019-03-30T07:20:34.876Z,87.10
2019-03-30T07:21:13.821Z,87.30
2019-03-30T07:21:55.589Z,87.30
2019-03-30T07:22:34.639Z,87.40
2019-03-30T07:23:13.671Z,87.60
2019-03-30T07:23:52.951Z,87.00
2019-03-30T07:24:33.300Z,88.10
2019-03-30T07:25:12.968Z,86.30
2019-03-30T07:25:52.477Z,86.70
2019-03-30T07:26:31.549Z,86.20
2019-03-30T07:27:13.132Z,86.90
2019-03-30T07:27:52.738Z,86.90
2019-03-30T07:28:31.995Z,86.50
2019-03-30T07:29:11.703Z,86.90
2019-03-30T07:29:51.533Z,85.90
2019-03-30T07:30:30.574Z,86.40
2019-03-30T07:31:09.544Z,87.10
2019-03-30T07:31:48.517Z,87.00
2019-03-30T07:32:27.524Z,87.40
2019-03-30T07:33:07.262Z,87.60
2019-03-30T07:33:46.250Z,87.80
2019-03-30T07:34:25.669Z,87.80
2019-03-30T07:35:05.240Z,87.70
2019-03-30T07:35:44.331Z,87.30
2019-03-30T07:36:23.795Z,87.60
2019-03-30T07:37:02.879Z,87.80
2019-03-30T07:37:41.876Z,87.70
2019-03-30T07:38:20.915Z,88.00
2019-03-30T07:38:59.939Z,87.10
2019-03-30T07:39:39.464Z,87.40
2019-03-30T07:40:19.126Z,87.90
2019-03-30T07:40:58.800Z,87.60
2019-03-30T07:41:37.954Z,87.70
2019-03-30T07:42:16.957Z,87.80
2019-03-30T07:42:56.811Z,87.80
2019-03-30T07:43:36.090Z,88.10
2019-03-30T07:44:15.690Z,87.90
2019-03-30T07:44:54.865Z,87.40
2019-03-30T07:45:34.481Z,87.80
2019-03-30T07:46:13.504Z,88.40
2019-03-30T07:46:52.594Z,88.20
2019-03-30T07:47:31.546Z,88.00
2019-03-30T07:48:10.549Z,87.80
2019-03-30T07:48:50.053Z,87.90
2019-03-30T07:49:29.040Z,88.10
2019-03-30T07:50:08.214Z,88.00
2019-03-30T07:50:47.192Z,86.70
2019-03-30T07:51:26.738Z,87.80
2019-03-30T07:52:06.116Z,86.80
2019-03-30T07:52:45.064Z,87.20
2019-03-30T07:53:26.746Z,86.90
2019-03-30T07:54:05.624Z,87.90
2019-03-30T07:54:44.930Z,87.80
2019-03-30T07:55:24.663Z,87.60
2019-03-30T07:56:08.600Z,87.60
2019-03-30T07:57:17.564Z,87.70
2019-03-30T07:58:11.976Z,87.70
2019-03-30T07:58:51.231Z,87.30
2019-03-30T08:01:43.156Z,87.20
2019-03-30T08:02:25.371Z,87.20
2019-03-30T08:03:57.319Z,87.00
2019-03-30T08:05:02.478Z,86.70
2019-03-30T08:05:28.748Z,86.50
2019-03-30T08:06:07.830Z,86.50
2019-03-30T08:07:23.636Z,86.50
2019-03-30T08:08:16.065Z,86.20
2019-03-30T08:08:56.959Z,85.90
2019-03-30T08:09:45.126Z,86.00
2019-03-30T08:10:52.987Z,85.90
2019-03-30T08:11:36.042Z,85.70
2019-03-30T08:12:24.241Z,85.00
2019-03-30T08:13:11.878Z,85.30
2019-03-30T08:15:38.244Z,85.30
2019-03-30T08:15:42.154Z,85.10
2019-03-30T08:16:21.588Z,84.70
2019-03-30T08:19:16.371Z,83.50
2019-03-30T08:19:59.417Z,84.10
2019-03-30T08:20:58.724Z,84.00
2019-03-30T08:21:35.431Z,84.00
2019-03-30T08:22:35.077Z,83.80
2019-03-30T08:23:13.359Z,83.70
2019-03-30T08:24:39.520Z,83.50
2019-03-30T08:25:23.961Z,83.40
2019-03-30T08:26:09.631Z,83.40
2019-03-30T08:26:53.057Z,83.10
2019-03-30T08:27:43.815Z,83.10
2019-03-30T08:28:26.213Z,83.00
2019-03-30T08:29:07.946Z,83.10
2019-03-30T08:29:53.080Z,83.10
2019-03-30T08:30:32.137Z,82.90
2019-03-30T08:31:11.111Z,82.90
2019-03-30T08:31:50.209Z,82.70
2019-03-30T08:32:29.214Z,82.60
2019-03-30T08:33:08.180Z,82.70
2019-03-30T08:33:47.224Z,81.80
2019-03-30T08:34:29.774Z,81.70
2019-03-30T08:35:11.879Z,81.50
2019-03-30T08:35:50.958Z,81.50
2019-03-30T08:36:30.120Z,81.50
2019-03-30T08:37:09.218Z,81.40
2019-03-30T08:37:49.732Z,81.30
2019-03-30T08:38:31.635Z,81.10
2019-03-30T08:39:11.613Z,81.00
2019-03-30T08:39:56.179Z,80.80
2019-03-30T08:40:39.752Z,80.70
2019-03-30T08:41:21.259Z,80.50
2019-03-30T08:42:16.027Z,80.50
2019-03-30T08:43:13.805Z,80.40
2019-03-30T08:44:02.211Z,80.40
2019-03-30T08:44:41.667Z,80.50
2019-03-30T08:45:29.887Z,81.30
2019-03-30T08:46:15.578Z,80.50